Impacts METAR Board
IDs:

KCVG - Cincinnati Intl, KY, US

Updated at: 2000 UTC 25 Apr 2018
Potential Impact None Slight Moderate High
Time 25/08Z 25/09Z 25/10Z 25/11Z 25/12Z 25/13Z 25/14Z 25/15Z 25/16Z 25/17Z 25/18Z 25/19Z 25/20Z
Temp53 53 53 53 53 54 54 54 56 57 60 62 64
Dewpt51 51 51 50 50 50 50 51 50 49 49 50 49
Altim29.88 29.88 29.88 29.90 29.92 29.93 29.95 29.97 29.96 29.95 29.94 29.94 29.93
VIS5 5 6 7 8 7 9 3 10 10 10 10 10
CIG7 6 8 9 11 15 12 9 12 26 35 46 55
CoverOVCOVCOVCOVCOVCOVCOVCOVCOVCOVCOVCOVCBKN
FltCatIFRIFRIFRIFRMVFRMVFRMVFRIFRMVFRMVFRVFRVFRVFR
WXBRBRBR---------DZ BR----------
WDir3403300330350330330330330330340340320
WSpd8 7 6 8 7 7 12 10 12 11 10 9 13
WGst-- -- -- -- -- -- -- -- -- -- -- -- --
Raw hourly METARs
KCVG 250752Z 34008KT 5SM BR OVC007 12/11 A2988 RMK AO2 SLP114 T01170106
KCVG 250852Z 33007KT 5SM BR BKN006 OVC010 12/11 A2988 RMK AO2 SLP116 BCFG T01170106 55006
KCVG 250952Z VRB06KT 6SM BR BKN008 BKN015 OVC020 12/11 A2988 RMK AO2 SLP115 T01170106
KCVG 251052Z 33008KT 7SM BKN009 OVC013 12/10 A2990 RMK AO2 DZB06E23B31E47 SLP122 P0000 T01170100
KCVG 251152Z 35007KT 8SM BKN011 OVC016 12/10 A2992 RMK AO2 SLP128 60000 70021 T01170100 10117 20117 53012
KCVG 251252Z 33007KT 7SM SCT010 OVC015 12/10 A2993 RMK AO2 SLP134 T01220100
KCVG 251352Z 33012KT 9SM OVC012 12/10 A2995 RMK AO2 SLP140 T01220100
KCVG 251459Z 33010KT 3SM -DZ BR OVC009 12/11 A2997 RMK AO2 P0000 T01220106
KCVG 251552Z 33012KT 10SM BKN012 OVC019 13/10 A2996 RMK AO2 SLP144 DZE10 P0000 T01330100
KCVG 251652Z 33011KT 10SM SCT017 OVC026 14/09 A2995 RMK AO2 CIG 020 36R SLP141 T01390094
KCVG 251758Z 34010KT 10SM SCT022 OVC035 16/09 A2994 RMK AO2 BINOVC T01560094
KCVG 251852Z 34009KT 10SM FEW026 SCT032 OVC046 17/10 A2994 RMK AO2 SLP134 BINOVC T01670100
KCVG 251952Z 32013KT 10SM SCT036 BKN055 BKN300 18/09 A2993 RMK AO2 SLP132 MDT CU NE-SE T01780094



Page loaded:  20:23 UTC  |   01:23 PM Pacific  |   02:23 PM Mountain  |   03:23 PM Central  |   04:23 PM Eastern

 

ADVISORIES

FORECASTS

FORECASTS

OBSERVATIONS

USER TOOLS

ABOUT US